Time;durP1;ratioP1;P1;durP2;ratioP2;P2;SDS_P1;SDS_P2;PMS_P1;PMS_P2;Temp;Humidity;BMP_temperature;BMP_pressure;BME280_temperature;BME280_humidity;BME280_pressure;Samples;Min_cycle;Max_cycle;Signal;HPM_P1;HPM_P2
2022/03/10 00:01:52;;;;;;;10.25;6.03;;;2.70;90.30;;;;;;4887583;29;20049;-87
2022/03/10 00:04:17;;;;;;;9.88;5.82;;;2.60;91.00;;;;;;4876609;29;20445;-88
2022/03/10 00:06:43;;;;;;;10.70;6.30;;;2.90;91.90;;;;;;4873981;29;20080;-86
2022/03/10 00:09:09;;;;;;;8.43;5.47;;;2.40;92.20;;;;;;4887130;29;20123;-89
2022/03/10 00:11:34;;;;;;;8.85;5.60;;;2.70;92.90;;;;;;4864553;29;20086;-88
2022/03/10 00:14:00;;;;;;;9.30;5.00;;;2.80;93.30;;;;;;4880962;29;20447;-88
2022/03/10 00:16:26;;;;;;;14.13;6.65;;;2.60;93.60;;;;;;4849528;29;20131;-88
2022/03/10 00:18:51;;;;;;;14.75;6.63;;;2.40;94.30;;;;;;4862848;29;20045;-88
2022/03/10 00:21:17;;;;;;;9.65;7.03;;;2.30;94.50;;;;;;4859445;29;20135;-88
2022/03/10 00:23:43;;;;;;;11.15;5.88;;;2.20;95.10;;;;;;4888759;29;20051;-87
2022/03/10 00:26:08;;;;;;;11.63;6.10;;;2.50;95.50;;;;;;4852191;29;20049;-88
2022/03/10 00:28:34;;;;;;;11.77;7.03;;;2.10;95.80;;;;;;4884526;29;20048;-86
2022/03/10 00:31:00;;;;;;;12.52;6.32;;;3.20;96.20;;;;;;4884215;29;20041;-87
2022/03/10 00:33:26;;;;;;;15.45;6.85;;;1.90;96.60;;;;;;4870107;29;20176;-88
2022/03/10 00:35:52;;;;;;;13.65;6.38;;;1.90;97.00;;;;;;4873497;29;20057;-88
2022/03/10 00:38:18;;;;;;;6.97;5.30;;;3.10;98.10;;;;;;4872232;29;20139;-89
2022/03/10 00:40:45;;;;;;;9.98;6.40;;;3.20;99.10;;;;;;4867311;29;20081;-89
2022/03/10 00:43:11;;;;;;;9.63;6.32;;;1.70;98.90;;;;;;4896079;29;20096;-88
2022/03/10 00:45:38;;;;;;;5.75;4.85;;;2.20;99.60;;;;;;4867403;29;20056;-87
2022/03/10 00:48:04;;;;;;;10.75;6.00;;;1.60;99.70;;;;;;4875736;29;20126;-89
2022/03/10 00:50:29;;;;;;;11.07;6.07;;;1.60;99.90;;;;;;4873675;29;20488;-88
2022/03/10 00:52:55;;;;;;;8.70;5.90;;;1.60;99.90;;;;;;4857402;29;20055;-88
2022/03/10 00:55:22;;;;;;;10.90;6.15;;;2.80;99.90;;;;;;4876159;29;20061;-88
2022/03/10 00:57:49;;;;;;;10.73;5.93;;;2.20;99.90;;;;;;4850072;29;20083;-88
2022/03/10 01:00:15;;;;;;;10.00;6.38;;;1.40;99.90;;;;;;4865098;29;20059;-87
2022/03/10 01:02:41;;;;;;;15.15;6.47;;;1.40;99.90;;;;;;4896939;29;20072;-86
2022/03/10 01:05:08;;;;;;;14.90;5.63;;;1.30;99.90;;;;;;4882775;29;20077;-88
2022/03/10 01:07:35;;;;;;;9.75;7.15;;;1.30;99.90;;;;;;4859759;29;20412;-87
2022/03/10 01:10:05;;;;;;;10.80;6.95;;;1.30;99.90;;;;;;4855461;29;20084;-88
2022/03/10 01:12:31;;;;;;;7.30;5.60;;;1.90;99.90;;;;;;4886513;29;20045;-88
2022/03/10 01:14:58;;;;;;;7.80;5.20;;;1.70;99.90;;;;;;4881929;29;20131;-88
2022/03/10 01:17:24;;;;;;;8.77;5.88;;;1.30;99.90;;;;;;4870629;29;20060;-87
2022/03/10 01:19:49;;;;;;;9.60;6.45;;;1.20;99.90;;;;;;4875229;29;20108;-87
2022/03/10 01:22:16;;;;;;;10.27;6.45;;;1.20;99.90;;;;;;4875816;29;20508;-87
2022/03/10 01:24:42;;;;;;;11.05;6.43;;;1.20;99.90;;;;;;4866152;29;20457;-87
2022/03/10 01:27:08;;;;;;;12.20;6.22;;;2.60;99.90;;;;;;4871749;29;20045;-88
2022/03/10 01:29:34;;;;;;;8.65;5.70;;;1.30;99.90;;;;;;4851588;29;20157;-89
2022/03/10 01:32:00;;;;;;;11.35;6.13;;;1.20;99.90;;;;;;4841148;29;20140;-87
2022/03/10 01:34:26;;;;;;;17.70;6.30;;;2.30;99.90;;;;;;4876484;29;20051;-88
2022/03/10 01:36:51;;;;;;;12.13;6.38;;;1.10;99.90;;;;;;4852586;29;20056;-88
2022/03/10 01:39:17;;;;;;;10.52;6.25;;;2.00;99.90;;;;;;4873617;29;20488;-88
2022/03/10 01:41:43;;;;;;;10.20;6.45;;;1.00;99.90;;;;;;4874884;29;20057;-85
2022/03/10 01:44:10;;;;;;;8.88;5.97;;;1.00;99.90;;;;;;4873202;29;20061;-88
2022/03/10 01:46:37;;;;;;;8.43;5.57;;;2.00;99.90;;;;;;4867781;29;20045;-88
2022/03/10 01:49:06;;;;;;;6.72;4.70;;;2.00;99.90;;;;;;4873764;29;20307;-88
2022/03/10 01:51:33;;;;;;;9.43;5.93;;;2.00;99.90;;;;;;4872808;29;20113;-88
2022/03/10 01:53:59;;;;;;;7.85;4.45;;;1.90;99.90;;;;;;4882723;29;20045;-88
2022/03/10 01:56:25;;;;;;;11.77;5.90;;;1.40;99.90;;;;;;4873258;29;20120;-88
2022/03/10 01:58:53;;;;;;;8.73;6.13;;;0.90;99.90;;;;;;4871833;29;20064;-88
2022/03/10 02:01:19;;;;;;;8.30;5.68;;;0.80;99.90;;;;;;4872061;29;20049;-87
2022/03/10 02:03:45;;;;;;;7.13;5.57;;;0.80;99.90;;;;;;4851839;29;20080;-85
2022/03/10 02:06:12;;;;;;;10.20;5.70;;;1.00;99.90;;;;;;4862934;29;20143;-88
2022/03/10 02:11:22;;;;;;;10.40;6.30;;;1.60;99.90;;;;;;4864724;29;20108;-88
2022/03/10 02:13:48;;;;;;;8.77;5.50;;;1.80;99.90;;;;;;4888444;29;20096;-87
2022/03/10 02:19:00;;;;;;;12.68;6.57;;;1.20;99.90;;;;;;4866046;29;20139;-88
2022/03/10 02:21:28;;;;;;;7.83;5.83;;;1.60;99.90;;;;;;4860018;29;20131;-88
2022/03/10 02:23:53;;;;;;;10.65;5.63;;;1.10;99.90;;;;;;4888376;29;20363;-88
2022/03/10 02:26:19;;;;;;;9.30;5.63;;;1.80;99.90;;;;;;4838723;29;20143;-88
2022/03/10 02:28:47;;;;;;;10.50;6.00;;;0.60;99.90;;;;;;4888502;29;20062;-88
2022/03/10 02:31:15;;;;;;;11.60;6.22;;;1.80;99.90;;;;;;4877942;29;20117;-88
2022/03/10 02:33:42;;;;;;;11.52;5.60;;;0.90;99.90;;;;;;4856957;29;20056;-88
2022/03/10 02:36:07;;;;;;;11.50;5.40;;;0.90;99.90;;;;;;4868745;29;20139;-88
2022/03/10 02:38:34;;;;;;;8.13;5.55;;;0.50;99.90;;;;;;4871137;29;20140;-87
2022/03/10 02:41:00;;;;;;;8.63;6.03;;;1.90;99.90;;;;;;4880384;29;20042;-88
2022/03/10 02:43:25;;;;;;;10.63;6.00;;;0.40;99.90;;;;;;4887765;29;20065;-88
2022/03/10 02:45:51;;;;;;;9.27;5.90;;;1.50;99.90;;;;;;4883653;29;20057;-88
2022/03/10 02:48:18;;;;;;;10.25;6.18;;;0.40;99.90;;;;;;4885796;29;20037;-88
2022/03/10 02:50:45;;;;;;;11.50;5.82;;;1.60;99.90;;;;;;4873432;29;20053;-88
2022/03/10 02:53:15;;;;;;;;;;;0.30;99.90;;;;;;4869717;29;20111;-87
2022/03/10 02:55:43;;;;;;;5.82;4.57;;;1.60;99.90;;;;;;4874408;29;19973;-88
2022/03/10 02:58:08;;;;;;;12.23;6.13;;;0.30;99.90;;;;;;4854906;29;20045;-88
2022/03/10 03:00:34;;;;;;;6.35;5.35;;;1.60;99.90;;;;;;4864238;29;20056;-86
2022/03/10 03:03:00;;;;;;;10.23;5.40;;;0.30;99.90;;;;;;4866408;29;20089;-86
2022/03/10 03:05:25;;;;;;;15.00;6.10;;;1.70;99.90;;;;;;4856312;29;20128;-88
2022/03/10 03:07:51;;;;;;;14.63;5.65;;;0.20;99.90;;;;;;4873106;29;20041;-86
2022/03/10 03:10:17;;;;;;;9.23;5.20;;;0.20;99.90;;;;;;4893352;29;20052;-88
2022/03/10 03:12:47;;;;;;;13.30;5.40;;;0.20;99.90;;;;;;4867084;29;20056;-88
2022/03/10 03:15:14;;;;;;;17.10;6.57;;;1.10;99.90;;;;;;4869661;29;20109;-87
2022/03/10 03:17:40;;;;;;;6.10;4.75;;;0.30;99.90;;;;;;4882052;29;20052;-88
2022/03/10 03:20:06;;;;;;;8.32;6.03;;;0.20;99.90;;;;;;4858455;29;20052;-88
2022/03/10 03:22:32;;;;;;;12.27;5.35;;;0.10;99.90;;;;;;4865018;29;20127;-87
2022/03/10 03:24:58;;;;;;;8.23;6.15;;;1.10;99.90;;;;;;4877970;29;20469;-86
2022/03/10 03:27:24;;;;;;;6.35;5.05;;;0.20;99.90;;;;;;4874701;29;20040;-88
2022/03/10 03:29:49;;;;;;;6.13;4.82;;;0.40;99.90;;;;;;4883048;29;20064;-88
2022/03/10 03:32:15;;;;;;;11.88;6.68;;;1.30;99.90;;;;;;4837403;29;20041;-87
2022/03/10 03:34:41;;;;;;;12.48;5.82;;;0.30;99.90;;;;;;4868420;29;20084;-87
2022/03/10 03:37:06;;;;;;;11.20;5.95;;;0.60;99.90;;;;;;4886709;29;20045;-88
2022/03/10 03:39:32;;;;;;;6.85;5.22;;;0.80;99.90;;;;;;4884201;29;20049;-88
2022/03/10 03:41:58;;;;;;;6.13;4.32;;;0.20;99.90;;;;;;4872243;29;20043;-86
2022/03/10 03:44:24;;;;;;;6.78;4.75;;;1.00;99.90;;;;;;4871818;29;20056;-88
2022/03/10 03:46:49;;;;;;;6.53;5.10;;;1.00;99.90;;;;;;4862695;29;20061;-87
2022/03/10 03:49:15;;;;;;;12.38;6.05;;;0.80;99.90;;;;;;4885522;29;20053;-88
2022/03/10 03:51:41;;;;;;;11.98;6.18;;;0.50;99.90;;;;;;4860916;29;20045;-87
2022/03/10 03:54:07;;;;;;;11.73;6.05;;;0.90;99.90;;;;;;4857024;29;20496;-87
2022/03/10 03:56:34;;;;;;;6.43;4.63;;;0.70;99.90;;;;;;4851209;29;20059;-87
2022/03/10 03:59:00;;;;;;;;;;;0.70;99.90;;;;;;4882878;29;20300;-86
2022/03/10 04:01:26;;;;;;;7.00;4.43;;;2.00;99.90;;;;;;4873552;29;19923;-87
2022/03/10 04:03:51;;;;;;;7.80;4.85;;;2.00;99.90;;;;;;4891768;29;20040;-87
2022/03/10 04:06:17;;;;;;;9.55;5.80;;;0.70;99.90;;;;;;4859313;29;20110;-86
2022/03/10 04:08:43;;;;;;;10.43;4.97;;;0.70;99.90;;;;;;4876491;29;20055;-87
2022/03/10 04:11:09;;;;;;;11.50;5.90;;;0.60;99.90;;;;;;4875856;29;20049;-87
2022/03/10 04:13:35;;;;;;;8.43;5.80;;;1.40;99.90;;;;;;4873144;29;20048;-88
2022/03/10 04:16:00;;;;;;;11.68;5.82;;;0.50;99.90;;;;;;4848957;29;20038;-85
2022/03/10 04:18:26;;;;;;;10.65;5.20;;;0.50;99.90;;;;;;4893524;29;20564;-87
2022/03/10 04:20:52;;;;;;;9.13;5.15;;;1.80;99.90;;;;;;4874508;29;20105;-86
2022/03/10 04:23:17;;;;;;;7.45;4.72;;;1.20;99.90;;;;;;4874414;29;20131;-87
2022/03/10 04:25:43;;;;;;;11.40;5.55;;;0.40;99.90;;;;;;4874489;29;20045;-87
2022/03/10 04:28:09;;;;;;;9.25;5.97;;;0.40;99.90;;;;;;4888718;29;20037;-87
2022/03/10 04:30:35;;;;;;;5.60;4.60;;;1.20;99.90;;;;;;4886535;29;20057;-87
2022/03/10 04:33:01;;;;;;;6.93;4.93;;;0.30;99.90;;;;;;4851730;29;20048;-87
2022/03/10 04:35:28;;;;;;;9.55;6.53;;;0.30;99.90;;;;;;4872186;29;20041;-87
2022/03/10 04:37:54;;;;;;;11.38;6.90;;;0.80;99.90;;;;;;4886610;29;20040;-87
2022/03/10 04:40:20;;;;;;;6.35;4.88;;;0.20;99.90;;;;;;4870367;29;20063;-87
2022/03/10 04:42:47;;;;;;;6.38;4.57;;;0.90;99.90;;;;;;4865868;29;20181;-87
2022/03/10 04:45:13;;;;;;;6.50;5.15;;;0.20;99.90;;;;;;4862737;29;20560;-87
2022/03/10 04:47:41;;;;;;;8.63;5.90;;;0.20;99.90;;;;;;4877847;29;20123;-87
2022/03/10 04:50:09;;;;;;;9.75;4.32;;;0.20;99.90;;;;;;4868083;29;20061;-86
2022/03/10 04:52:36;;;;;;;8.75;4.95;;;0.20;99.90;;;;;;4882795;29;20037;-87
2022/03/10 04:55:02;;;;;;;11.03;4.73;;;0.70;99.90;;;;;;4868630;29;20044;-87
2022/03/10 04:57:28;;;;;;;14.27;4.78;;;0.20;99.90;;;;;;4870576;29;20321;-87
2022/03/10 04:59:53;;;;;;;11.85;6.60;;;1.20;99.90;;;;;;4866774;29;20056;-86
2022/03/10 05:02:19;;;;;;;12.70;4.32;;;0.20;99.90;;;;;;4850369;29;20037;-87
2022/03/10 05:04:45;;;;;;;8.18;4.35;;;0.30;99.90;;;;;;4853874;29;20396;-87
2022/03/10 05:07:11;;;;;;;8.18;4.70;;;1.20;99.90;;;;;;4877007;29;20438;-87
2022/03/10 05:09:37;;;;;;;9.43;5.53;;;0.30;99.90;;;;;;4874275;29;20065;-87
2022/03/10 05:12:03;;;;;;;8.80;5.05;;;0.30;99.90;;;;;;4849560;29;20089;-86
2022/03/10 05:14:29;;;;;;;7.28;4.85;;;0.30;99.90;;;;;;4867452;29;20045;-87
2022/03/10 05:16:55;;;;;;;8.82;4.50;;;0.40;99.90;;;;;;4872827;29;20113;-87
2022/03/10 05:19:21;;;;;;;7.90;4.80;;;0.30;99.90;;;;;;4849148;29;20050;-86
2022/03/10 05:21:46;;;;;;;7.20;4.53;;;1.20;99.90;;;;;;4853598;29;20053;-87
2022/03/10 05:24:12;;;;;;;7.85;4.70;;;0.60;99.90;;;;;;4892614;29;20056;-86
2022/03/10 05:26:38;;;;;;;7.05;5.10;;;0.30;99.90;;;;;;4865880;29;20493;-87
2022/03/10 05:29:04;;;;;;;8.52;5.15;;;0.30;99.90;;;;;;4884880;29;20041;-87
2022/03/10 05:31:30;;;;;;;9.00;5.18;;;0.30;99.90;;;;;;4871886;29;20100;-87
2022/03/10 05:33:56;;;;;;;5.78;3.60;;;0.20;99.90;;;;;;4874145;29;20049;-86
2022/03/10 05:36:22;;;;;;;9.18;4.78;;;0.20;99.90;;;;;;4863060;29;20051;-87
2022/03/10 05:38:48;;;;;;;6.05;4.10;;;1.20;99.90;;;;;;4872063;29;20049;-88
2022/03/10 05:41:14;;;;;;;8.20;5.05;;;0.80;99.90;;;;;;4863887;29;20374;-86
2022/03/10 05:43:40;;;;;;;6.47;4.97;;;0.20;99.90;;;;;;4874457;29;20093;-87
2022/03/10 05:46:06;;;;;;;7.18;4.97;;;0.10;99.90;;;;;;4874562;29;20491;-87
2022/03/10 05:48:32;;;;;;;8.25;5.45;;;1.20;99.90;;;;;;4851248;29;20045;-87
2022/03/10 05:50:58;;;;;;;13.82;6.03;;;1.40;99.90;;;;;;4873468;29;20382;-87
2022/03/10 05:53:24;;;;;;;9.25;4.65;;;0.60;99.90;;;;;;4865623;29;20492;-87
2022/03/10 05:55:50;;;;;;;7.35;5.47;;;1.20;99.90;;;;;;4856072;29;20491;-87
2022/03/10 05:58:16;;;;;;;4.25;3.85;;;0.70;99.90;;;;;;4866362;29;20084;-87
2022/03/10 06:00:42;;;;;;;7.75;5.05;;;0.10;99.90;;;;;;4867324;29;20044;-87
2022/03/10 06:03:07;;;;;;;10.52;5.28;;;0.20;99.90;;;;;;4865266;29;20135;-87
2022/03/10 06:05:33;;;;;;;10.15;4.68;;;0.20;99.90;;;;;;4879271;29;20544;-87
2022/03/10 06:07:59;;;;;;;6.85;4.80;;;0.30;99.90;;;;;;4863008;29;20093;-87
2022/03/10 06:10:25;;;;;;;7.37;5.23;;;0.30;99.90;;;;;;4891001;29;20073;-87
2022/03/10 06:12:52;;;;;;;10.97;5.57;;;0.70;99.90;;;;;;4858319;29;20049;-87
2022/03/10 06:15:18;;;;;;;9.43;4.50;;;0.40;99.90;;;;;;4860922;29;20527;-86
2022/03/10 06:17:44;;;;;;;17.60;5.45;;;0.50;99.90;;;;;;4871181;29;20127;-87
2022/03/10 06:20:11;;;;;;;10.43;6.50;;;0.60;99.90;;;;;;4889586;29;20497;-87
2022/03/10 06:22:36;;;;;;;;;;;0.60;99.90;;;;;;4887052;29;20083;-87
2022/03/10 06:25:04;;;;;;;4.15;3.45;;;0.70;99.90;;;;;;4865901;29;20263;-87
2022/03/10 06:27:30;;;;;;;7.03;3.88;;;0.80;99.90;;;;;;4838874;29;20053;-87
2022/03/10 06:29:56;;;;;;;10.80;5.68;;;1.00;99.90;;;;;;4859305;29;20053;-86
2022/03/10 06:32:24;;;;;;;10.82;4.47;;;0.90;99.90;;;;;;4854340;29;20052;-87
2022/03/10 06:34:57;;;;;;;7.75;5.32;;;1.00;99.90;;;;;;4873843;29;20032;-92
2022/03/10 06:37:31;;;;;;;19.58;4.72;;;1.00;99.90;;;;;;4873445;29;20047;-91
2022/03/10 06:40:02;;;;;;;9.77;5.20;;;1.90;99.90;;;;;;4861637;29;20496;-89
2022/03/10 06:42:34;;;;;;;13.57;5.90;;;0.10;99.90;;;;;;4853272;29;20087;-91
2022/03/10 06:45:03;;;;;;;11.50;5.40;;;0.80;99.90;;;;;;4870737;29;20218;-89
2022/03/10 06:47:29;;;;;;;7.45;4.95;;;1.10;99.90;;;;;;4871136;29;21954;-87
2022/03/10 06:49:54;;;;;;;10.25;4.90;;;0.40;99.90;;;;;;4871464;29;20060;-87
2022/03/10 06:52:20;;;;;;;10.27;5.50;;;1.50;99.90;;;;;;4869763;29;20515;-87
2022/03/10 06:54:46;;;;;;;12.15;6.65;;;2.80;99.90;;;;;;4868247;29;20056;-86
2022/03/10 06:57:12;;;;;;;12.20;6.07;;;1.50;99.90;;;;;;4878776;29;20127;-88
2022/03/10 06:59:38;;;;;;;7.03;5.07;;;1.60;99.90;;;;;;4873422;29;20041;-87
2022/03/10 07:02:04;;;;;;;10.02;6.43;;;1.80;99.90;;;;;;4870175;29;20514;-88
2022/03/10 07:04:31;;;;;;;13.60;5.70;;;1.80;99.90;;;;;;4868704;29;20160;-85
2022/03/10 07:06:56;;;;;;;11.40;6.00;;;3.30;99.90;;;;;;4892682;29;20056;-85
2022/03/10 07:09:22;;;;;;;9.70;6.15;;;2.10;99.90;;;;;;4866580;29;20064;-83
2022/03/10 07:11:48;;;;;;;9.45;5.68;;;3.50;99.90;;;;;;4890321;29;20097;-86
2022/03/10 07:14:14;;;;;;;8.65;5.95;;;3.50;99.90;;;;;;4884559;29;20052;-87
2022/03/10 07:16:40;;;;;;;10.82;6.88;;;4.10;99.90;;;;;;4877451;29;20049;-89
2022/03/10 07:19:09;;;;;;;11.13;6.00;;;4.70;99.90;;;;;;4873706;29;20489;-88
2022/03/10 07:21:35;;;;;;;13.02;6.35;;;5.30;99.90;;;;;;4895214;29;20091;-87
2022/03/10 07:24:00;;;;;;;13.60;6.63;;;5.70;99.90;;;;;;4892494;29;20057;-88
2022/03/10 07:26:26;;;;;;;10.07;6.23;;;6.50;99.90;;;;;;4881749;29;20044;-90
2022/03/10 07:28:52;;;;;;;12.97;7.17;;;6.40;99.90;;;;;;4871041;29;20043;-88
2022/03/10 07:31:18;;;;;;;15.88;7.10;;;6.70;99.90;;;;;;4891650;29;20056;-89
2022/03/10 07:33:44;;;;;;;10.53;6.47;;;7.00;99.90;;;;;;4880453;29;20425;-86
2022/03/10 07:36:10;;;;;;;8.90;6.50;;;7.40;99.30;;;;;;4887398;29;20097;-89
2022/03/10 07:38:35;;;;;;;9.67;6.17;;;7.50;98.20;;;;;;4886082;29;20033;-88
2022/03/10 07:41:01;;;;;;;11.20;6.80;;;7.70;97.20;;;;;;4886645;29;20045;-87
2022/03/10 07:43:27;;;;;;;11.80;7.67;;;7.90;96.30;;;;;;4877535;29;20492;-83
2022/03/10 07:45:53;;;;;;;12.17;7.93;;;8.20;95.40;;;;;;4861632;29;20189;-86
2022/03/10 07:48:19;;;;;;;9.80;6.47;;;8.50;94.30;;;;;;4882875;29;20086;-88
2022/03/10 07:50:44;;;;;;;7.93;5.75;;;8.70;92.90;;;;;;4875299;29;20451;-88
2022/03/10 07:53:10;;;;;;;13.40;7.30;;;8.90;91.30;;;;;;4867151;29;20128;-87
2022/03/10 07:55:36;;;;;;;10.00;6.90;;;9.00;90.00;;;;;;4883347;29;20112;-86
2022/03/10 07:58:02;;;;;;;13.68;6.45;;;9.20;87.80;;;;;;4852885;29;20060;-87
2022/03/10 08:00:28;;;;;;;10.87;7.07;;;9.30;86.50;;;;;;4885381;29;20057;-82
2022/03/10 08:02:53;;;;;;;10.63;6.50;;;9.50;85.40;;;;;;4885948;29;20576;-88
2022/03/10 08:05:19;;;;;;;8.13;5.70;;;9.70;84.60;;;;;;4884412;29;20081;-87
2022/03/10 08:07:45;;;;;;;10.00;6.33;;;9.90;83.70;;;;;;4880992;29;20045;-87
2022/03/10 08:10:11;;;;;;;10.13;6.37;;;10.10;82.10;;;;;;4892170;29;20064;-88
2022/03/10 08:12:37;;;;;;;7.20;5.73;;;10.30;80.70;;;;;;4890693;29;20048;-88
2022/03/10 08:15:03;;;;;;;9.23;6.17;;;10.50;79.20;;;;;;4864789;29;20497;-87
2022/03/10 08:17:29;;;;;;;9.98;5.72;;;10.70;78.40;;;;;;4893582;29;20048;-88
2022/03/10 08:19:55;;;;;;;10.50;6.43;;;10.80;76.70;;;;;;4891697;29;20073;-85
2022/03/10 08:22:23;;;;;;;9.00;6.25;;;10.90;75.60;;;;;;4854176;29;20519;-89
2022/03/10 08:24:49;;;;;;;8.90;6.22;;;11.10;74.30;;;;;;4893591;29;20101;-87
2022/03/10 08:27:15;;;;;;;10.27;6.13;;;11.30;73.70;;;;;;4890322;29;20049;-87
2022/03/10 08:29:42;;;;;;;9.23;7.07;;;11.40;72.50;;;;;;4872528;29;20061;-88
2022/03/10 08:32:07;;;;;;;;;;;11.50;71.40;;;;;;4876062;29;20057;-87
2022/03/10 08:34:33;;;;;;;9.15;6.13;;;11.60;66.10;;;;;;4875815;29;20413;-86
2022/03/10 08:36:59;;;;;;;10.33;5.63;;;11.90;70.50;;;;;;4894275;29;20056;-87
2022/03/10 08:39:24;;;;;;;10.10;6.07;;;11.90;69.00;;;;;;4898273;29;20047;-88
2022/03/10 08:41:51;;;;;;;9.50;6.20;;;11.90;67.90;;;;;;4892168;29;20260;-86
2022/03/10 08:44:19;;;;;;;8.05;5.72;;;11.90;66.80;;;;;;4874418;29;20527;-85
2022/03/10 08:46:45;;;;;;;10.35;6.15;;;12.10;65.90;;;;;;4873110;29;20632;-84
2022/03/10 08:49:10;;;;;;;9.57;5.87;;;12.10;64.80;;;;;;4884292;29;20119;-85
2022/03/10 08:51:37;;;;;;;10.60;5.80;;;12.10;64.40;;;;;;4884562;29;20056;-81
2022/03/10 08:54:03;;;;;;;10.88;5.22;;;12.10;63.80;;;;;;4880344;29;20049;-86
2022/03/10 08:56:28;;;;;;;12.68;7.13;;;12.30;63.80;;;;;;4891011;29;20057;-85
2022/03/10 08:58:54;;;;;;;9.20;5.93;;;12.50;63.40;;;;;;4878056;29;20045;-85
2022/03/10 09:01:20;;;;;;;10.27;6.50;;;12.60;62.90;;;;;;4887727;29;20053;-86
2022/03/10 09:03:45;;;;;;;8.90;6.03;;;12.60;62.20;;;;;;4878162;29;20404;-87
2022/03/10 09:06:12;;;;;;;7.53;6.20;;;12.70;61.80;;;;;;4879801;29;20514;-86
2022/03/10 09:08:38;;;;;;;10.52;5.90;;;12.60;61.30;;;;;;4872301;29;20055;-86
2022/03/10 09:11:04;;;;;;;10.98;6.07;;;12.60;60.80;;;;;;4865200;29;20044;-85
2022/03/10 09:13:30;;;;;;;10.67;6.27;;;12.60;60.40;;;;;;4883157;29;20059;-86
2022/03/10 09:15:56;;;;;;;8.63;6.15;;;12.60;59.60;;;;;;4893903;29;20093;-86
2022/03/10 09:18:22;;;;;;;9.47;5.77;;;12.50;59.20;;;;;;4866143;29;20458;-88
2022/03/10 09:20:48;;;;;;;12.10;6.20;;;12.40;59.00;;;;;;4892221;29;20063;-88
2022/03/10 09:23:13;;;;;;;10.88;6.03;;;12.60;59.20;;;;;;4879447;29;20053;-88
2022/03/10 09:25:39;;;;;;;8.17;6.40;;;12.60;58.90;;;;;;4862263;29;20489;-87
2022/03/10 09:28:05;;;;;;;11.17;7.13;;;12.60;58.30;;;;;;4863381;29;20048;-88
2022/03/10 09:30:31;;;;;;;6.88;5.53;;;12.60;58.40;;;;;;4863545;29;20060;-87
2022/03/10 09:32:57;;;;;;;14.33;6.13;;;12.60;58.40;;;;;;4892300;29;20057;-88
2022/03/10 09:35:25;;;;;;;10.98;6.30;;;12.60;58.50;;;;;;4879391;29;20510;-88
2022/03/10 09:37:52;;;;;;;10.07;5.70;;;12.60;59.00;;;;;;4879402;29;20049;-88
2022/03/10 09:40:18;;;;;;;11.50;7.38;;;12.20;58.70;;;;;;4869367;29;20056;-88
2022/03/10 09:42:46;;;;;;;;;;;12.00;59.00;;;;;;4879131;29;20049;-84
2022/03/10 09:45:13;;;;;;;;;;;11.90;59.60;;;;;;4880288;29;20019;-92
2022/03/10 09:47:40;;;;;;;8.25;5.28;;;12.00;60.40;;;;;;4851961;29;19924;-89
2022/03/10 09:50:10;;;;;;;12.25;6.13;;;12.10;60.90;;;;;;4861081;29;20052;-89
2022/03/10 09:52:36;;;;;;;7.70;5.35;;;12.10;60.30;;;;;;4882860;29;20045;-89
2022/03/10 09:55:03;;;;;;;10.43;5.63;;;12.20;60.30;;;;;;4871940;29;20041;-89
2022/03/10 09:57:28;;;;;;;;;;;12.30;59.70;;;;;;4867171;29;20053;-89
2022/03/10 09:59:57;;;;;;;8.82;5.45;;;12.40;57.50;;;;;;4870337;29;19971;-89
2022/03/10 10:02:23;;;;;;;9.57;6.20;;;12.60;59.20;;;;;;4896160;29;20144;-89
2022/03/10 10:04:49;;;;;;;11.60;7.35;;;12.80;59.00;;;;;;4869871;29;20059;-89
2022/03/10 10:07:21;;;;;;;9.10;6.25;;;12.90;57.90;;;;;;4879966;29;20049;-89
2022/03/10 10:09:54;;;;;;;11.13;6.45;;;13.00;58.50;;;;;;4881003;29;20120;-88
2022/03/10 10:12:30;;;;;;;7.63;5.95;;;13.10;57.30;;;;;;4851630;29;20136;-86
2022/03/10 10:14:58;;;;;;;9.88;5.70;;;13.10;57.50;;;;;;4858937;29;20500;-89
2022/03/10 10:17:30;;;;;;;11.95;6.38;;;13.10;57.40;;;;;;4880409;29;20088;-88
2022/03/10 10:19:58;;;;;;;11.00;6.10;;;13.20;56.90;;;;;;4894029;29;20094;-89
2022/03/10 10:22:26;;;;;;;7.50;6.22;;;13.30;57.10;;;;;;4880513;29;20053;-89
2022/03/10 10:24:54;;;;;;;7.75;6.05;;;13.30;56.90;;;;;;4861734;29;20597;-89
2022/03/10 10:27:22;;;;;;;11.38;6.45;;;13.40;56.80;;;;;;4878609;29;20087;-89
2022/03/10 10:29:50;;;;;;;9.18;6.32;;;13.30;56.60;;;;;;4862242;29;20572;-88
2022/03/10 10:32:32;;;;;;;9.75;6.45;;;13.40;56.70;;;;;;4882324;29;20404;-89
2022/03/10 10:35:01;;;;;;;11.57;6.70;;;13.40;54.60;;;;;;4871281;29;20464;-88
2022/03/10 10:37:27;;;;;;;10.80;6.63;;;13.40;56.00;;;;;;4863279;29;20449;-89
2022/03/10 10:39:53;;;;;;;16.63;7.10;;;13.40;55.80;;;;;;4879604;29;20041;-91
2022/03/10 10:42:19;;;;;;;10.57;6.18;;;13.40;55.70;;;;;;4877937;29;20049;-88
2022/03/10 10:44:45;;;;;;;8.47;6.20;;;13.40;55.40;;;;;;4892153;29;20204;-90
2022/03/10 10:47:11;;;;;;;8.87;6.47;;;13.50;56.60;;;;;;4862647;29;20052;-90
2022/03/10 10:49:36;;;;;;;9.77;6.70;;;13.60;55.70;;;;;;4886507;29;20080;-90
2022/03/10 10:52:02;;;;;;;11.23;6.85;;;13.60;55.30;;;;;;4877483;29;20168;-90
2022/03/10 10:54:31;;;;;;;9.45;7.00;;;13.80;55.10;;;;;;4862857;29;20044;-90
2022/03/10 10:57:01;;;;;;;10.15;6.32;;;13.90;54.80;;;;;;4877159;29;20049;-90
2022/03/10 10:59:28;;;;;;;9.43;6.55;;;13.90;54.40;;;;;;4879092;29;20049;-90
2022/03/10 11:02:21;;;;;;;9.90;6.75;;;13.90;54.40;;;;;;4892522;29;20127;-89
2022/03/10 11:04:51;;;;;;;10.55;6.63;;;13.90;53.70;;;;;;4870780;29;20535;-90
2022/03/10 11:07:19;;;;;;;10.50;7.07;;;13.90;53.90;;;;;;4864508;29;20056;-90
2022/03/10 11:09:47;;;;;;;8.68;6.28;;;14.00;54.50;;;;;;4880487;29;20116;-90
2022/03/10 11:12:14;;;;;;;12.07;6.50;;;14.10;54.20;;;;;;4877662;29;20060;-90
2022/03/10 11:14:42;;;;;;;13.48;7.05;;;14.20;53.70;;;;;;4876544;29;20064;-90
2022/03/10 11:17:08;;;;;;;10.18;7.05;;;14.20;53.80;;;;;;4874880;29;20049;-90
2022/03/10 11:19:39;;;;;;;10.90;7.60;;;14.30;53.40;;;;;;4841871;29;20059;-91
2022/03/10 11:22:28;;;;;;;12.88;7.32;;;14.40;53.30;;;;;;4889157;29;20049;-90
2022/03/10 11:25:17;;;;;;;12.30;7.35;;;14.60;52.90;;;;;;4862500;29;20056;-86
2022/03/10 11:28:17;;;;;;;12.07;7.28;;;13.60;51.40;;;;;;4862579;29;20045;-88
2022/03/10 11:30:54;;;;;;;9.82;6.63;;;14.70;51.70;;;;;;4864207;29;20061;-91
2022/03/10 11:33:20;;;;;;;9.43;7.00;;;14.80;51.70;;;;;;4900972;29;20053;-94
2022/03/10 11:35:48;;;;;;;14.93;8.23;;;14.80;52.30;;;;;;4862540;29;20060;-88
2022/03/10 11:38:15;;;;;;;11.73;6.90;;;14.90;52.40;;;;;;4881104;29;20373;-88
2022/03/10 11:40:56;;;;;;;12.05;8.07;;;15.00;52.70;;;;;;4876012;29;20508;-91
2022/03/10 11:43:36;;;;;;;13.68;8.10;;;15.20;51.80;;;;;;4866143;29;20048;-90
2022/03/10 11:46:19;;;;;;;13.18;7.43;;;15.30;49.60;;;;;;4880245;29;20164;-90
2022/03/10 11:49:00;;;;;;;12.75;7.45;;;15.40;50.20;;;;;;4858413;29;20062;-89
2022/03/10 11:51:52;;;;;;;11.10;7.00;;;15.50;49.00;;;;;;4882050;29;20115;-91
2022/03/10 11:54:25;;;;;;;10.63;7.50;;;15.60;49.10;;;;;;4861098;29;20048;-90
2022/03/10 11:56:50;;;;;;;16.33;7.70;;;15.60;50.50;;;;;;4877879;29;20045;-90
2022/03/10 11:59:26;;;;;;;10.63;6.67;;;15.70;50.50;;;;;;4862295;29;20071;-91
2022/03/10 12:01:53;;;;;;;12.85;7.03;;;15.80;50.10;;;;;;4881082;29;20051;-90
2022/03/10 12:04:23;;;;;;;10.48;6.80;;;15.80;49.70;;;;;;4892702;29;20128;-90
2022/03/10 12:06:58;;;;;;;11.18;7.18;;;16.00;49.60;;;;;;4846022;29;20484;-91
2022/03/10 12:09:38;;;;;;;10.10;6.88;;;16.10;49.80;;;;;;4891695;29;20080;-88
2022/03/10 12:12:20;;;;;;;10.82;6.65;;;16.30;49.30;;;;;;4876007;29;20049;-90
2022/03/10 12:14:47;;;;;;;12.32;7.75;;;16.40;47.60;;;;;;4864774;29;20097;-90
2022/03/10 12:17:44;;;;;;;14.18;7.40;;;16.40;48.60;;;;;;4880573;29;20073;-90
2022/03/10 12:20:16;;;;;;;12.07;6.72;;;16.40;47.80;;;;;;4868143;29;20136;-89
2022/03/10 12:23:03;;;;;;;12.25;6.65;;;16.50;47.90;;;;;;4868872;29;20142;-89
2022/03/10 12:25:35;;;;;;;10.57;7.57;;;16.60;47.10;;;;;;4861814;29;20065;-87
2022/03/10 12:28:02;;;;;;;9.60;7.18;;;16.70;48.60;;;;;;4874595;29;20136;-86
2022/03/10 12:30:29;;;;;;;11.52;7.10;;;16.80;49.10;;;;;;4863601;29;20136;-90
2022/03/10 12:32:57;;;;;;;9.65;6.38;;;16.80;48.30;;;;;;4864355;29;20048;-89
2022/03/10 12:35:37;;;;;;;10.77;6.93;;;16.90;48.50;;;;;;4880089;29;20052;-88
2022/03/10 12:38:04;;;;;;;13.88;6.63;;;17.00;47.40;;;;;;4867164;29;20049;-88
2022/03/10 12:40:33;;;;;;;15.70;7.45;;;17.00;48.50;;;;;;4880634;29;20049;-89
2022/03/10 12:43:05;;;;;;;15.57;8.45;;;16.90;48.00;;;;;;4865201;29;20034;-89
2022/03/10 12:45:31;;;;;;;9.77;6.93;;;16.90;48.50;;;;;;4860338;29;20077;-88
2022/03/10 12:48:13;;;;;;;11.65;6.47;;;17.10;48.90;;;;;;4870609;29;20498;-88
2022/03/10 12:50:39;;;;;;;14.25;7.00;;;17.30;48.20;;;;;;4876183;29;20054;-89
2022/03/10 12:53:12;;;;;;;12.73;7.53;;;17.50;49.00;;;;;;4876241;29;20057;-88
2022/03/10 12:55:38;;;;;;;11.65;6.85;;;17.70;48.30;;;;;;4879790;29;20049;-90
2022/03/10 12:58:03;;;;;;;11.40;7.40;;;17.70;48.60;;;;;;4870742;29;20056;-94